This is the latest recevied weather packets stored in our database for station/object DC2ML-11. If no packets are shown the sender has not sent any weather packets the latest 1 day(s).
| Time | Temp. | Humidity | Pressure | Rain* | Wind** | Luminosity | Snow |
|---|---|---|---|---|---|---|---|
| 1778054215 | 19.44° C | 56% | 1007.8 hPa | - | - | - | - |
| 1778053315 | 18.89° C | 54% | 1007.7 hPa | - | - | - | - |
| 1778052415 | 18.89° C | 54% | 1007.6 hPa | - | - | - | - |
| 1778051514 | 19.44° C | 54% | 1007.7 hPa | - | - | - | - |
| 1778049713 | 20.56° C | 50% | 1007.5 hPa | - | - | - | - |
| 1778048812 | 20.56° C | 50% | 1007.6 hPa | - | - | - | - |
| 1778047011 | 19.44° C | 51% | 1007.3 hPa | - | - | - | - |
| 1778046111 | 20.56° C | 52% | 1007.3 hPa | - | - | - | - |
| 1778045210 | 20° C | 52% | 1007.3 hPa | - | - | - | - |
| 1778044309 | 19.44° C | 53% | 1007.2 hPa | - | - | - | - |
| 1778042507 | 18.33° C | 55% | 1007.3 hPa | - | - | - | - |
| 1778040707 | 17.78° C | 57% | 1007.1 hPa | - | - | - | - |
| 1778039804 | 17.78° C | 58% | 1007.1 hPa | - | - | - | - |
| 1778038904 | 16.11° C | 60% | 1007.1 hPa | - | - | - | - |
| 1778038003 | 15° C | 62% | 1007.2 hPa | - | - | - | - |
| 1778037102 | 15° C | 61% | 1007.3 hPa | - | - | - | - |
| 1778036202 | 15° C | 61% | 1007.4 hPa | - | - | - | - |
| 1778035302 | 15° C | 60% | 1007.5 hPa | - | - | - | - |
| 1778034402 | 15° C | 60% | 1007.6 hPa | - | - | - | - |
| 1778033502 | 15° C | 59% | 1007.6 hPa | - | - | - | - |
| 1778032602 | 15° C | 59% | 1007.6 hPa | - | - | - | - |
| 1778031702 | 15° C | 58% | 1007.8 hPa | - | - | - | - |
| 1778030802 | 15.56° C | 57% | 1007.9 hPa | - | - | - | - |
| 1778029902 | 15.56° C | 57% | 1007.9 hPa | - | - | - | - |
| 1778028101 | 15.56° C | 57% | 1008.2 hPa | - | - | - | - |
* Rain since midnight (hover to see other rain measurements)
** Current wind speed in m/s (hover to see current wind gust speed)